Terminal Aerodrome Forecast
Issued by NWS

Home | Current Version | Previous Version | Text Only | Print | Product List | Glossary Off
Versions: 1 2 3 4 5 6 7 8 9 10 11 12 13 14 15 16 17

000
FTUS43 KICT 151120
TAFSLN
TAF
KSLN 151120Z 1512/1612 26009KT P6SM SKC
     FM151800 23014G19KT P6SM SKC
     FM152300 20011KT P6SM SKC=

USA.gov is the U.S. government's official web portal to all federal, state and local government web resources and services.